Time;durP1;ratioP1;P1;durP2;ratioP2;P2;SDS_P1;SDS_P2;PMS_P1;PMS_P2;Temp;Humidity;BMP_temperature;BMP_pressure;BME280_temperature;BME280_humidity;BME280_pressure;Samples;Min_cycle;Max_cycle;Signal;HPM_P1;HPM_P2
2023/04/13 00:00:56;;;;;;;27.70;17.70;;;;;;;8.80;86.45;100096.09;107926;1248;97664;-65
2023/04/13 00:03:26;;;;;;;28.20;18.30;;;;;;;8.82;86.66;100099.08;107916;1251;111981;-64
2023/04/13 00:05:55;;;;;;;28.00;18.30;;;;;;;8.83;86.51;100094.59;107660;1253;108914;-64
2023/04/13 00:08:24;;;;;;;25.40;17.80;;;;;;;8.85;86.52;100093.29;107663;1251;107669;-65
2023/04/13 00:10:53;;;;;;;27.90;17.00;;;;;;;8.88;86.39;100094.26;107629;1250;97833;-64
2023/04/13 00:13:23;;;;;;;30.10;19.30;;;;;;;8.90;86.33;100090.46;107588;1250;97806;-65
2023/04/13 00:15:52;;;;;;;32.30;17.80;;;;;;;8.94;86.43;100083.33;107792;1253;112015;-63
2023/04/13 00:18:20;;;;;;;23.60;16.50;;;;;;;9.00;86.29;100085.09;107647;1251;110917;-64
2023/04/13 00:20:49;;;;;;;25.90;16.00;;;;;;;9.07;86.45;100083.36;107926;1252;108691;-66
2023/04/13 00:23:17;;;;;;;25.30;16.20;;;;;;;9.10;85.80;100083.01;107943;1252;97885;-64
2023/04/13 00:25:45;;;;;;;23.50;17.00;;;;;;;9.04;85.13;100082.40;107929;1251;98359;-63
2023/04/13 00:28:15;;;;;;;28.30;16.20;;;;;;;8.97;84.87;100077.39;107913;1252;111209;-64
2023/04/13 00:30:44;;;;;;;24.50;15.80;;;;;;;8.91;84.87;100080.23;107699;1250;109641;-64
2023/04/13 00:33:13;;;;;;;26.70;16.20;;;;;;;8.86;84.82;100083.33;107685;1251;108775;-64
2023/04/13 00:35:42;;;;;;;29.00;17.90;;;;;;;8.86;84.91;100084.98;107643;1250;97697;-64
2023/04/13 00:38:10;;;;;;;22.70;15.80;;;;;;;8.84;84.85;100087.61;107681;1251;98473;-64
2023/04/13 00:40:39;;;;;;;25.10;15.50;;;;;;;8.84;84.83;100089.45;107921;1248;112421;-63
2023/04/13 00:43:08;;;;;;;32.10;17.00;;;;;;;8.81;84.69;100088.66;107700;1252;109423;-64
2023/04/13 00:45:38;;;;;;;26.20;15.10;;;;;;;8.75;84.73;100087.70;107912;1249;107635;-63
2023/04/13 00:48:09;;;;;;;24.10;14.90;;;;;;;8.72;84.86;100083.55;107944;1251;98260;-63
2023/04/13 00:50:40;;;;;;;25.30;16.00;;;;;;;8.72;84.84;100078.76;107754;1248;97981;-63
2023/04/13 00:53:12;;;;;;;23.80;15.20;;;;;;;8.73;84.90;100084.14;107738;1251;112122;-63
2023/04/13 00:55:41;;;;;;;23.80;16.00;;;;;;;8.75;84.96;100081.83;107645;1250;108525;-63
2023/04/13 00:58:12;;;;;;;25.70;15.90;;;;;;;8.80;84.97;100084.98;107620;1251;107512;-63
2023/04/13 01:00:41;;;;;;;29.50;16.50;;;;;;;8.82;84.88;100087.84;107780;1256;97879;-63
2023/04/13 01:03:11;;;;;;;23.00;15.40;;;;;;;8.88;85.12;100084.28;107604;1256;97746;-64
2023/04/13 01:05:49;;;;;;;23.20;15.60;;;;;;;8.95;85.01;100085.91;107906;1252;111877;-63
2023/04/13 01:08:35;;;;;;;21.00;14.20;;;;;;;9.00;84.86;100089.21;107703;1252;109154;-66
2023/04/13 01:11:11;;;;;;;28.60;15.90;;;;;;;9.04;84.67;100087.23;107563;1251;108656;-64
2023/04/13 01:13:45;;;;;;;24.10;16.10;;;;;;;9.11;84.75;100087.70;107706;1250;97755;-64
2023/04/13 01:16:43;;;;;;;23.30;15.20;;;;;;;9.13;84.30;100093.23;107939;1251;97828;-64
2023/04/13 01:19:27;;;;;;;23.10;14.10;;;;;;;9.05;83.54;100096.27;107934;1254;113054;-64
2023/04/13 01:21:55;;;;;;;24.80;13.70;;;;;;;8.93;83.18;100097.71;107734;1252;109683;-65
2023/04/13 01:25:04;;;;;;;24.90;14.90;;;;;;;8.85;83.43;100102.44;107893;1253;107656;-63
2023/04/13 01:27:36;;;;;;;26.80;14.30;;;;;;;8.77;83.43;100101.36;107707;1255;97902;-63
2023/04/13 01:30:05;;;;;;;24.90;15.10;;;;;;;8.73;83.57;100105.43;107851;1251;97713;-64
2023/04/13 01:32:34;;;;;;;28.60;15.40;;;;;;;8.70;83.85;100106.25;107690;1253;111301;-65
2023/04/13 01:35:05;;;;;;;21.20;14.00;;;;;;;8.67;83.91;100105.12;107736;1250;109961;-64
2023/04/13 01:37:33;;;;;;;22.00;14.60;;;;;;;8.65;83.81;100103.52;107612;1251;107186;-64
2023/04/13 01:40:08;;;;;;;29.80;14.50;;;;;;;8.63;83.99;100099.61;107594;1250;98579;-63
2023/04/13 01:42:42;;;;;;;23.70;15.60;;;;;;;8.65;83.94;100101.25;107566;1251;97909;-64
2023/04/13 01:45:22;;;;;;;20.40;14.90;;;;;;;8.65;84.01;100104.06;107768;1251;111047;-64
2023/04/13 01:48:06;;;;;;;26.30;15.40;;;;;;;8.70;84.25;100108.64;107794;1251;109951;-64
2023/04/13 01:50:53;;;;;;;23.00;14.40;;;;;;;8.75;84.25;100114.61;107694;1250;108667;-64
2023/04/13 01:54:06;;;;;;;22.80;14.20;;;;;;;8.78;83.94;100113.08;107632;1251;97818;-64
2023/04/13 01:56:38;;;;;;;24.90;14.10;;;;;;;8.76;83.80;100114.66;107676;1251;97845;-64
2023/04/13 01:59:08;;;;;;;21.40;13.60;;;;;;;8.76;83.53;100117.37;107674;1253;112541;-63
2023/04/13 02:01:39;;;;;;;21.00;14.40;;;;;;;8.73;83.40;100117.42;107802;1250;110163;-63
2023/04/13 02:04:08;;;;;;;22.10;14.60;;;;;;;8.69;83.38;100116.89;107621;1250;107659;-63
2023/04/13 02:06:41;;;;;;;23.40;12.70;;;;;;;8.67;83.33;100114.91;107626;1251;97815;-64
2023/04/13 02:09:10;;;;;;;33.40;14.20;;;;;;;8.67;83.22;100115.84;107662;1249;97892;-63
2023/04/13 02:11:39;;;;;;;18.30;12.80;;;;;;;8.65;83.02;100109.63;107759;1250;111595;-62
2023/04/13 02:14:09;;;;;;;20.10;12.80;;;;;;;8.62;83.04;100112.36;107718;1251;109090;-64
2023/04/13 02:16:38;;;;;;;23.90;13.40;;;;;;;8.60;82.97;100112.31;107681;1254;105989;-64
2023/04/13 02:19:07;;;;;;;18.10;12.90;;;;;;;8.58;83.23;100116.42;107591;1253;97824;-63
2023/04/13 02:21:36;;;;;;;26.10;14.20;;;;;;;8.55;83.02;100116.54;107605;1253;97721;-64
2023/04/13 02:24:05;;;;;;;21.30;13.70;;;;;;;8.53;83.05;100118.17;107675;1250;112256;-64
2023/04/13 02:26:36;;;;;;;23.80;14.60;;;;;;;8.51;83.14;100118.05;107679;1251;109715;-64
2023/04/13 02:29:06;;;;;;;27.60;15.20;;;;;;;8.49;83.10;100120.86;107646;1249;108969;-64
2023/04/13 02:31:35;;;;;;;24.60;13.70;;;;;;;8.48;83.23;100123.80;107684;1253;97731;-64
2023/04/13 02:34:04;;;;;;;21.70;13.80;;;;;;;8.48;83.18;100125.23;107627;1251;98351;-65
2023/04/13 02:36:33;;;;;;;25.80;13.40;;;;;;;8.48;83.20;100121.31;107636;1253;111781;-62
2023/04/13 02:39:07;;;;;;;25.20;13.50;;;;;;;8.48;83.14;100117.89;107650;1253;110058;-64
2023/04/13 02:41:36;;;;;;;25.90;14.40;;;;;;;8.48;83.12;100116.81;107743;1254;108360;-63
2023/04/13 02:44:05;;;;;;;21.00;13.80;;;;;;;8.48;83.13;100121.29;107712;1254;97701;-64
2023/04/13 02:46:42;;;;;;;27.00;14.70;;;;;;;8.47;83.13;100123.73;107596;1251;97723;-64
2023/04/13 02:49:15;;;;;;;20.50;13.90;;;;;;;8.46;83.16;100125.58;107614;1253;111369;-64
2023/04/13 02:51:53;;;;;;;21.10;13.30;;;;;;;8.45;83.27;100124.93;107951;1252;109729;-64
2023/04/13 02:54:29;;;;;;;30.50;14.40;;;;;;;8.44;83.34;100125.93;107896;1251;108163;-65
2023/04/13 02:56:59;;;;;;;23.30;13.30;;;;;;;8.43;83.29;100123.65;107929;1251;97785;-63
2023/04/13 02:59:28;;;;;;;23.10;14.10;;;;;;;8.44;83.40;100123.08;107947;1251;97719;-63
2023/04/13 03:01:58;;;;;;;31.40;14.70;;;;;;;8.44;83.40;100124.86;107716;1252;112679;-64
2023/04/13 03:04:29;;;;;;;25.80;13.40;;;;;;;8.45;83.49;100126.01;107950;1251;109669;-64
2023/04/13 03:06:58;;;;;;;20.30;13.10;;;;;;;8.44;83.50;100128.73;107656;1250;108480;-64
2023/04/13 03:09:28;;;;;;;28.60;14.00;;;;;;;8.44;83.76;100132.56;107918;1254;97992;-64
2023/04/13 03:11:57;;;;;;;28.30;15.60;;;;;;;8.40;84.09;100134.82;107923;1249;98434;-64
2023/04/13 03:14:28;;;;;;;28.00;15.00;;;;;;;8.38;84.14;100139.46;107679;1253;110813;-63
2023/04/13 03:17:06;;;;;;;27.50;16.40;;;;;;;8.36;84.43;100144.30;107883;1251;108433;-63
2023/04/13 03:19:38;;;;;;;46.00;24.30;;;;;;;8.36;84.52;100142.75;107574;1251;107165;-63
2023/04/13 03:22:08;;;;;;;28.50;15.70;;;;;;;8.35;84.50;100141.52;107542;1251;97893;-63
2023/04/13 03:24:42;;;;;;;30.00;15.50;;;;;;;8.34;84.82;100141.44;107912;1252;97837;-63
2023/04/13 03:27:11;;;;;;;28.90;15.30;;;;;;;8.35;84.67;100141.58;107883;1251;111210;-64
2023/04/13 03:29:45;;;;;;;25.30;15.30;;;;;;;8.34;84.61;100138.41;107818;1251;110035;-64
2023/04/13 03:32:19;;;;;;;26.70;15.00;;;;;;;8.34;84.65;100143.83;107598;1251;108120;-64
2023/04/13 03:34:53;;;;;;;27.00;15.40;;;;;;;8.32;84.81;100147.40;107731;1251;97820;-68
2023/04/13 03:37:28;;;;;;;25.70;15.70;;;;;;;8.31;84.79;100143.00;107660;1250;97806;-64
2023/04/13 03:40:01;;;;;;;29.90;15.20;;;;;;;8.29;84.83;100145.10;107623;1253;110911;-65
2023/04/13 03:42:32;;;;;;;27.30;16.00;;;;;;;8.28;84.94;100146.30;107713;1251;109545;-63
2023/04/13 03:45:02;;;;;;;27.60;15.20;;;;;;;8.29;84.82;100146.13;107782;1251;108663;-64
2023/04/13 03:47:31;;;;;;;22.90;15.50;;;;;;;8.32;84.83;100152.23;107790;1251;97816;-64
2023/04/13 03:50:00;;;;;;;26.30;15.80;;;;;;;8.32;84.80;100153.81;107677;1251;97863;-65
2023/04/13 03:52:31;;;;;;;30.20;15.40;;;;;;;8.33;84.77;100151.20;107655;1251;112056;-65
2023/04/13 03:54:59;;;;;;;25.30;15.50;;;;;;;8.37;84.73;100155.35;107932;1251;109997;-65
2023/04/13 03:57:30;;;;;;;30.70;15.50;;;;;;;8.39;84.69;100161.74;107598;1254;108316;-64
2023/04/13 03:59:59;;;;;;;26.70;15.40;;;;;;;8.40;84.53;100165.42;107714;1251;97803;-64
2023/04/13 04:02:46;;;;;;;25.00;14.80;;;;;;;8.41;84.34;100174.77;107881;1251;97806;-64
2023/04/13 04:05:21;;;;;;;27.40;14.70;;;;;;;8.43;84.30;100174.05;107608;1251;111852;-64
2023/04/13 04:07:53;;;;;;;29.70;15.70;;;;;;;8.50;84.29;100180.52;107581;1253;108642;-64
2023/04/13 04:10:21;;;;;;;24.70;14.40;;;;;;;8.55;84.22;100180.98;107640;1251;107520;-65
2023/04/13 04:12:51;;;;;;;24.70;14.90;;;;;;;8.59;84.04;100185.95;107626;1251;97874;-65
2023/04/13 04:15:19;;;;;;;29.00;15.40;;;;;;;8.63;83.81;100189.70;107728;1251;97911;-64
2023/04/13 04:17:50;;;;;;;27.80;15.40;;;;;;;8.67;83.94;100192.86;107613;1251;110270;-63
2023/04/13 04:20:19;;;;;;;33.20;19.30;;;;;;;8.75;83.74;100193.65;107586;1251;109733;-64
2023/04/13 04:22:50;;;;;;;27.70;15.90;;;;;;;8.81;83.71;100195.80;107690;1251;108204;-64
2023/04/13 04:25:22;;;;;;;25.80;16.60;;;;;;;8.88;83.74;100196.73;107712;1251;97695;-64
2023/04/13 04:27:56;;;;;;;31.90;15.20;;;;;;;8.96;83.53;100195.28;107568;1251;97809;-64
2023/04/13 04:30:32;;;;;;;26.10;14.10;;;;;;;9.00;83.06;100196.76;107694;1251;111755;-65
2023/04/13 04:33:01;;;;;;;27.60;15.30;;;;;;;9.06;83.25;100197.29;107800;1251;110092;-63
2023/04/13 04:35:34;;;;;;;28.80;16.00;;;;;;;9.18;83.72;100205.48;107614;1251;108066;-64
2023/04/13 04:38:05;;;;;;;38.50;16.00;;;;;;;9.29;83.51;100211.10;107645;1251;97809;-64
2023/04/13 04:40:35;;;;;;;33.70;16.90;;;;;;;9.37;83.56;100212.33;107704;1250;97669;-65
2023/04/13 04:43:05;;;;;;;25.30;15.30;;;;;;;9.46;83.02;100211.73;107755;1251;111775;-64
2023/04/13 04:45:42;;;;;;;38.20;16.10;;;;;;;9.47;82.17;100214.27;107656;1251;110178;-64
2023/04/13 04:48:13;;;;;;;31.50;16.90;;;;;;;9.49;81.82;100214.48;107701;1251;107515;-66
2023/04/13 04:50:44;;;;;;;31.20;17.00;;;;;;;9.50;81.61;100213.43;107706;1256;97951;-63
2023/04/13 04:53:17;;;;;;;33.90;16.60;;;;;;;9.55;81.65;100214.23;107665;1250;97727;-63
2023/04/13 04:55:46;;;;;;;40.90;17.40;;;;;;;9.59;81.23;100215.73;107673;1251;111646;-64
2023/04/13 04:58:33;;;;;;;33.90;17.20;;;;;;;9.57;80.67;100213.72;107642;1251;109766;-65
2023/04/13 05:01:02;;;;;;;47.10;17.70;;;;;;;9.55;80.52;100217.10;107678;1251;107622;-63
2023/04/13 05:03:31;;;;;;;28.40;16.00;;;;;;;9.54;80.29;100218.61;107739;1257;97813;-64
2023/04/13 05:06:08;;;;;;;35.00;18.00;;;;;;;9.51;79.89;100222.63;107658;1251;97708;-64
2023/04/13 05:08:37;;;;;;;25.80;15.10;;;;;;;9.44;79.31;100226.33;107592;1251;111687;-64
2023/04/13 05:11:06;;;;;;;29.60;15.70;;;;;;;9.37;79.39;100228.94;107613;1251;109789;-64
2023/04/13 05:13:35;;;;;;;24.10;15.10;;;;;;;9.36;79.44;100235.86;107775;1251;108303;-64
2023/04/13 05:16:19;;;;;;;30.90;16.40;;;;;;;9.36;79.28;100232.46;107702;1253;97810;-63
2023/04/13 05:18:51;;;;;;;22.40;14.70;;;;;;;9.39;79.08;100235.77;107616;1251;98401;-63
2023/04/13 05:21:32;;;;;;;21.10;13.70;;;;;;;9.34;78.64;100236.17;107725;1251;111680;-63
2023/04/13 05:24:01;;;;;;;26.60;14.10;;;;;;;9.33;78.67;100235.98;107784;1251;108690;-64
2023/04/13 05:26:30;;;;;;;33.10;15.60;;;;;;;9.37;79.17;100237.55;107712;1253;107658;-64
2023/04/13 05:29:00;;;;;;;30.30;16.20;;;;;;;9.46;79.44;100234.56;107689;1251;97825;-63
2023/04/13 05:31:33;;;;;;;35.20;15.00;;;;;;;9.57;79.48;100237.54;107660;1251;97705;-65
2023/04/13 05:34:03;;;;;;;34.40;15.40;;;;;;;9.65;79.29;100238.25;107677;1251;111282;-63
2023/04/13 05:36:32;;;;;;;28.90;14.90;;;;;;;9.72;79.55;100241.80;107700;1251;108557;-64
2023/04/13 05:39:04;;;;;;;35.70;15.50;;;;;;;9.80;79.24;100240.05;107736;1255;108178;-64
2023/04/13 05:41:33;;;;;;;29.40;14.10;;;;;;;9.84;78.84;100238.21;107937;1251;97880;-63
2023/04/13 05:44:02;;;;;;;30.70;15.40;;;;;;;9.83;78.23;100246.39;107902;1251;97919;-65
2023/04/13 05:46:32;;;;;;;31.20;14.60;;;;;;;9.83;78.21;100247.30;107918;1251;111916;-64
2023/04/13 05:49:04;;;;;;;31.40;14.70;;;;;;;9.85;78.33;100251.16;107919;1251;109088;-64
2023/04/13 05:51:33;;;;;;;28.70;14.70;;;;;;;9.91;78.24;100250.33;107950;1251;107766;-64
2023/04/13 05:54:02;;;;;;;28.70;14.50;;;;;;;9.93;77.61;100244.59;107645;1251;97905;-63
2023/04/13 05:56:33;;;;;;;28.30;13.90;;;;;;;9.93;77.11;100246.56;107597;1257;97977;-65
2023/04/13 05:59:03;;;;;;;26.70;13.60;;;;;;;9.89;76.79;100245.45;107719;1251;111854;-63
2023/04/13 06:01:31;;;;;;;25.80;13.70;;;;;;;9.86;76.51;100250.73;107673;1251;110954;-64
2023/04/13 06:04:01;;;;;;;25.50;13.10;;;;;;;9.86;76.58;100252.20;107621;1253;107425;-64
2023/04/13 06:06:32;;;;;;;22.80;13.40;;;;;;;9.90;76.57;100252.94;107759;1251;98561;-65
2023/04/13 06:09:00;;;;;;;22.80;13.30;;;;;;;9.92;76.16;100252.15;107764;1251;97800;-64
2023/04/13 06:11:29;;;;;;;34.60;15.00;;;;;;;9.91;75.85;100248.34;107797;1251;112444;-64
2023/04/13 06:14:01;;;;;;;33.70;14.30;;;;;;;9.94;76.13;100245.95;107694;1251;109647;-64
2023/04/13 06:16:29;;;;;;;22.80;13.50;;;;;;;9.99;76.15;100246.17;107748;1251;108590;-64
2023/04/13 06:18:58;;;;;;;21.20;12.80;;;;;;;10.06;75.88;100248.52;107704;1251;97892;-63
2023/04/13 06:21:28;;;;;;;23.80;14.00;;;;;;;10.16;75.96;100254.36;107730;1251;98132;-64
2023/04/13 06:23:57;;;;;;;21.00;13.60;;;;;;;10.30;76.25;100252.90;107791;1250;111338;-63
2023/04/13 06:26:32;;;;;;;19.10;12.20;;;;;;;10.44;76.21;100251.95;107551;1251;109361;-64
2023/04/13 06:29:01;;;;;;;18.40;12.80;;;;;;;10.57;75.63;100252.53;107649;1253;108754;-63
2023/04/13 06:31:35;;;;;;;22.40;11.90;;;;;;;10.64;74.99;100256.43;107600;1251;97822;-63
2023/04/13 06:34:07;;;;;;;25.20;12.20;;;;;;;10.72;74.22;100253.88;107767;1251;97829;-64
2023/04/13 06:36:39;;;;;;;21.20;12.00;;;;;;;10.80;74.21;100261.57;107675;1251;111407;-65
2023/04/13 06:39:09;;;;;;;21.30;11.40;;;;;;;10.91;73.22;100263.20;107597;1249;109627;-63
2023/04/13 06:41:38;;;;;;;19.20;11.90;;;;;;;10.92;72.47;100267.96;107702;1253;108265;-64
2023/04/13 06:44:41;;;;;;;16.40;11.40;;;;;;;10.98;72.52;100268.45;107661;1253;97912;-63
2023/04/13 06:47:10;;;;;;;21.70;12.80;;;;;;;11.06;72.04;100269.32;107748;1251;97729;-64
2023/04/13 06:49:39;;;;;;;20.80;12.50;;;;;;;11.17;71.70;100274.34;107820;1251;113166;-64
2023/04/13 06:52:08;;;;;;;25.00;12.80;;;;;;;11.18;70.55;100274.92;107677;1251;110411;-63
2023/04/13 06:54:36;;;;;;;20.30;12.00;;;;;;;11.24;70.82;100278.96;107624;1252;108076;-64
2023/04/13 06:57:12;;;;;;;20.00;12.70;;;;;;;11.33;70.63;100283.16;107880;1250;97810;-66
2023/04/13 06:59:41;;;;;;;17.70;12.40;;;;;;;11.35;69.61;100280.42;107840;1251;98436;-65
2023/04/13 07:02:10;;;;;;;16.50;11.10;;;;;;;11.42;69.60;100279.54;107732;1251;111352;-64
2023/04/13 07:04:39;;;;;;;21.10;12.30;;;;;;;11.48;69.38;100284.75;107804;1251;109648;-64
2023/04/13 07:07:08;;;;;;;17.50;11.90;;;;;;;11.44;68.21;100289.41;107751;1250;108714;-64
2023/04/13 07:09:40;;;;;;;19.20;11.50;;;;;;;11.40;68.56;100284.01;107651;1253;97660;-66
2023/04/13 07:12:11;;;;;;;22.60;12.40;;;;;;;11.51;69.27;100278.10;107743;1251;97755;-65
2023/04/13 07:14:47;;;;;;;21.60;11.30;;;;;;;11.70;68.94;100275.80;107749;1251;112321;-64
2023/04/13 07:17:17;;;;;;;16.30;10.80;;;;;;;11.96;69.71;100279.49;107693;1251;111719;-63
2023/04/13 07:19:48;;;;;;;21.00;10.90;;;;;;;12.15;68.28;100283.81;107785;1251;109579;-65
2023/04/13 07:22:18;;;;;;;16.20;10.70;;;;;;;12.26;67.96;100278.30;107647;1250;97853;-66
2023/04/13 07:24:46;;;;;;;15.00;10.00;;;;;;;12.47;68.36;100279.98;107667;1250;97807;-64
2023/04/13 07:27:18;;;;;;;19.70;10.20;;;;;;;12.56;66.19;100276.12;107662;1251;111613;-64
2023/04/13 07:29:51;;;;;;;18.80;9.60;;;;;;;12.57;66.36;100279.16;107730;1253;108669;-63
2023/04/13 07:32:22;;;;;;;19.30;9.90;;;;;;;12.62;65.89;100273.21;107673;1251;108173;-64
2023/04/13 07:35:00;;;;;;;14.90;9.70;;;;;;;12.71;66.32;100273.23;107738;1251;97813;-63
2023/04/13 07:37:31;;;;;;;13.80;8.60;;;;;;;12.82;66.16;100274.41;107654;1250;97813;-65
2023/04/13 07:40:00;;;;;;;16.60;9.60;;;;;;;12.95;64.99;100275.49;107658;1251;112298;-65
2023/04/13 07:42:30;;;;;;;23.80;9.80;;;;;;;13.01;65.03;100279.63;107749;1250;108793;-63
2023/04/13 07:44:59;;;;;;;14.10;9.00;;;;;;;12.99;64.81;100279.86;107746;1250;107701;-65
2023/04/13 07:47:28;;;;;;;15.70;8.70;;;;;;;12.94;64.86;100280.73;107591;1251;97820;-64
2023/04/13 07:50:01;;;;;;;14.00;8.50;;;;;;;12.88;64.83;100275.55;107762;1251;98351;-63
2023/04/13 07:52:29;;;;;;;11.40;7.80;;;;;;;12.93;64.90;100274.12;107649;1249;111566;-63
2023/04/13 07:54:57;;;;;;;13.00;8.60;;;;;;;12.98;63.96;100272.04;107781;1251;110706;-64
2023/04/13 07:57:27;;;;;;;14.80;8.80;;;;;;;12.97;63.99;100274.83;107760;1250;108173;-64
2023/04/13 07:59:59;;;;;;;14.10;7.60;;;;;;;12.98;63.63;100272.03;107190;1249;742954;-64
2023/04/13 08:02:31;;;;;;;19.50;9.20;;;;;;;13.06;63.61;100268.08;107815;1251;97791;-63
2023/04/13 08:05:00;;;;;;;14.00;8.60;;;;;;;13.12;64.06;100267.36;107800;1251;112159;-65
2023/04/13 08:07:30;;;;;;;21.30;9.80;;;;;;;13.25;64.05;100265.52;107765;1250;109055;-64
2023/04/13 08:09:59;;;;;;;10.90;8.50;;;;;;;13.41;63.99;100260.46;107589;1250;108253;-64
2023/04/13 08:12:28;;;;;;;10.90;8.10;;;;;;;13.50;64.20;100258.92;107633;1254;97845;-63
2023/04/13 08:14:56;;;;;;;16.00;7.50;;;;;;;13.62;64.24;100257.78;107751;1251;97799;-63
2023/04/13 08:17:25;;;;;;;12.10;7.80;;;;;;;13.80;64.25;100260.23;107700;1250;110935;-64
2023/04/13 08:19:54;;;;;;;9.10;7.50;;;;;;;13.87;61.52;100264.40;107750;1253;109962;-65
2023/04/13 08:22:23;;;;;;;13.30;7.80;;;;;;;13.89;62.03;100263.85;107654;1250;108808;-64
2023/04/13 08:24:52;;;;;;;14.80;7.40;;;;;;;14.07;62.12;100265.08;107639;1248;97811;-63
2023/04/13 08:27:21;;;;;;;13.30;8.10;;;;;;;14.20;61.67;100266.91;107822;1250;98369;-64
2023/04/13 08:29:54;;;;;;;14.80;7.60;;;;;;;14.41;60.73;100264.39;107827;1254;112384;-63
2023/04/13 08:32:23;;;;;;;12.90;6.70;;;;;;;14.50;59.56;100262.10;107640;1250;109427;-64
2023/04/13 08:34:52;;;;;;;18.00;7.80;;;;;;;14.48;59.49;100263.42;107769;1251;108612;-64
2023/04/13 08:37:21;;;;;;;16.50;7.30;;;;;;;14.45;59.71;100265.97;107790;1250;97957;-67
2023/04/13 08:39:55;;;;;;;13.50;8.30;;;;;;;14.39;59.04;100267.67;107824;1250;98390;-63
2023/04/13 08:42:26;;;;;;;9.60;7.80;;;;;;;14.35;59.38;100269.58;107639;1250;110878;-64
2023/04/13 08:45:00;;;;;;;15.70;8.30;;;;;;;14.27;57.67;100269.66;107623;1251;108306;-65
2023/04/13 08:47:29;;;;;;;12.60;7.80;;;;;;;14.13;57.93;100273.11;107731;1250;108578;-63
2023/04/13 08:50:00;;;;;;;11.60;7.40;;;;;;;14.16;57.90;100269.11;107735;1250;97707;-64
2023/04/13 08:52:38;;;;;;;10.70;7.00;;;;;;;14.16;58.24;100270.77;107754;1251;97803;-64
2023/04/13 08:55:07;;;;;;;12.40;6.20;;;;;;;14.46;58.61;100262.38;107739;1251;111744;-64
2023/04/13 08:57:37;;;;;;;26.50;6.20;;;;;;;14.70;59.12;100262.58;107646;1251;109707;-63
2023/04/13 09:00:15;;;;;;;9.70;6.70;;;;;;;14.89;58.71;100259.93;107768;1248;107507;-64
2023/04/13 09:02:53;;;;;;;9.20;5.80;;;;;;;15.09;57.90;100258.34;107917;1249;97864;-64
2023/04/13 09:05:40;;;;;;;11.50;6.10;;;;;;;15.28;57.51;100261.13;107954;1249;97844;-64
2023/04/13 09:08:12;;;;;;;11.00;7.40;;;;;;;15.60;55.19;100258.38;107841;1248;111267;-64
2023/04/13 09:10:42;;;;;;;13.30;6.50;;;;;;;15.72;54.97;100259.64;107808;1253;110671;-65
2023/04/13 09:13:11;;;;;;;11.10;5.40;;;;;;;15.83;55.29;100262.64;107754;1250;107626;-64
2023/04/13 09:15:41;;;;;;;8.80;5.30;;;;;;;15.89;54.02;100262.46;107702;1250;97832;-64
2023/04/13 09:18:19;;;;;;;7.50;5.20;;;;;;;16.10;55.01;100266.05;107712;1250;97831;-62
2023/04/13 09:20:56;;;;;;;7.70;5.70;;;;;;;16.42;55.02;100257.44;107717;1249;111784;-66
2023/04/13 09:23:25;;;;;;;11.20;5.80;;;;;;;16.56;53.91;100254.13;107796;1253;109578;-64
2023/04/13 09:26:07;;;;;;;9.70;5.60;;;;;;;16.56;53.10;100260.39;107755;1251;108398;-64
2023/04/13 09:28:46;;;;;;;9.50;5.40;;;;;;;16.96;51.76;100255.54;107819;1250;97820;-65
2023/04/13 09:31:15;;;;;;;7.50;4.50;;;;;;;17.56;51.71;100250.09;107763;1249;97753;-65
2023/04/13 09:33:48;;;;;;;6.40;4.40;;;;;;;18.25;49.35;100249.31;107770;1250;111484;-64
2023/04/13 09:36:19;;;;;;;9.00;4.10;;;;;;;18.49;45.93;100248.45;107729;1250;109726;-64
2023/04/13 09:38:54;;;;;;;11.60;4.60;;;;;;;18.76;48.07;100239.79;107719;1251;109007;-63
2023/04/13 09:41:33;;;;;;;9.90;4.00;;;;;;;18.80;45.11;100238.16;107778;1249;97912;-65
2023/04/13 09:44:19;;;;;;;8.50;4.60;;;;;;;18.98;46.53;100237.81;107773;1252;98374;-63
2023/04/13 09:46:59;;;;;;;9.00;4.50;;;;;;;18.51;45.61;100243.42;107781;1249;112380;-64
2023/04/13 09:49:38;;;;;;;9.50;5.00;;;;;;;18.32;45.66;100238.80;107720;1249;109173;-66
2023/04/13 09:52:23;;;;;;;9.80;5.80;;;;;;;18.60;44.52;100238.51;107768;1250;108738;-64
2023/04/13 09:54:53;;;;;;;10.90;4.90;;;;;;;18.24;44.97;100239.11;107717;1250;97851;-62
2023/04/13 09:57:31;;;;;;;11.10;4.90;;;;;;;17.61;45.80;100240.65;107859;1250;97717;-63
2023/04/13 09:59:59;;;;;;;11.60;6.40;;;;;;;17.52;47.39;100245.20;107748;1251;111334;-64
2023/04/13 10:02:39;;;;;;;12.10;5.40;;;;;;;17.52;48.06;100246.84;107796;1251;109231;-65
2023/04/13 10:05:11;;;;;;;12.10;6.30;;;;;;;17.74;47.80;100244.60;107721;1250;108764;-64
2023/04/13 10:07:45;;;;;;;6.80;5.10;;;;;;;18.09;47.30;100241.77;107687;1252;97733;-63
2023/04/13 10:10:13;;;;;;;9.90;5.10;;;;;;;19.14;46.07;100240.50;107745;1250;98348;-64
2023/04/13 10:12:47;;;;;;;12.90;4.80;;;;;;;19.67;45.99;100242.11;107713;1251;111778;-62
2023/04/13 10:15:41;;;;;;;7.10;4.70;;;;;;;20.44;45.42;100243.39;107749;1251;109200;-65
2023/04/13 10:18:18;;;;;;;;;;;;;;;21.05;43.56;100239.73;107747;1255;107442;-64
2023/04/13 10:20:49;;;;;;;7.20;5.20;;;;;;;21.06;41.68;100242.74;107704;1250;97914;-64
2023/04/13 10:23:19;;;;;;;11.10;5.00;;;;;;;20.75;41.85;100248.56;107737;1250;98385;-64
2023/04/13 10:25:52;;;;;;;7.90;4.90;;;;;;;20.11;41.44;100245.23;107811;1251;112224;-64
2023/04/13 10:28:23;;;;;;;7.80;5.60;;;;;;;19.69;42.83;100246.14;107694;1251;109619;-64
2023/04/13 10:30:54;;;;;;;8.40;5.40;;;;;;;19.47;42.68;100246.83;107692;1250;109391;-65
2023/04/13 10:33:22;;;;;;;14.30;5.40;;;;;;;19.22;42.87;100243.23;107690;1251;97849;-63
2023/04/13 10:35:56;;;;;;;9.50;5.40;;;;;;;19.35;42.27;100248.20;107785;1255;97821;-64
2023/04/13 10:38:26;;;;;;;7.80;4.80;;;;;;;19.49;42.42;100239.08;107733;1249;111575;-63
2023/04/13 10:40:54;;;;;;;7.50;4.50;;;;;;;19.79;43.67;100239.56;107736;1250;109991;-63
2023/04/13 10:43:28;;;;;;;10.30;4.30;;;;;;;20.47;42.97;100239.73;107732;1251;108152;-64
2023/04/13 10:46:07;;;;;;;13.70;4.90;;;;;;;21.32;40.69;100240.53;107778;1249;97826;-65
2023/04/13 10:48:36;;;;;;;12.60;4.70;;;;;;;21.99;40.17;100236.88;107942;1248;97713;-64
2023/04/13 10:51:05;;;;;;;8.30;5.10;;;;;;;22.14;39.77;100241.59;107846;1251;111732;-65
2023/04/13 10:53:34;;;;;;;9.00;4.70;;;;;;;22.40;38.20;100239.94;107715;1251;109165;-65
2023/04/13 10:56:15;;;;;;;7.50;5.20;;;;;;;22.60;36.76;100236.73;107759;1253;107872;-63
2023/04/13 10:58:52;;;;;;;14.00;5.70;;;;;;;22.07;37.76;100235.63;107978;1248;97685;-63
2023/04/13 11:01:21;;;;;;;8.70;4.20;;;;;;;21.96;38.25;100235.81;108023;1248;97822;-65
2023/04/13 11:03:51;;;;;;;6.80;4.40;;;;;;;21.54;38.11;100237.98;107963;1248;110740;-63
2023/04/13 11:06:36;;;;;;;11.00;4.80;;;;;;;21.10;38.41;100239.15;107917;1248;108795;-64
2023/04/13 11:09:06;;;;;;;8.70;5.20;;;;;;;20.70;39.68;100245.16;107922;1248;108787;-63
2023/04/13 11:11:36;;;;;;;8.80;4.40;;;;;;;20.24;39.52;100240.48;107909;1248;97828;-64
2023/04/13 11:14:05;;;;;;;9.10;6.00;;;;;;;19.97;40.01;100239.36;107751;1249;97695;-64
2023/04/13 11:16:43;;;;;;;6.20;4.40;;;;;;;19.85;40.53;100235.73;107660;1251;111739;-64
2023/04/13 11:19:12;;;;;;;9.70;5.80;;;;;;;19.79;40.65;100238.89;107681;1254;109131;-63
2023/04/13 11:21:43;;;;;;;9.00;5.40;;;;;;;19.48;41.24;100244.39;107667;1250;108269;-65
2023/04/13 11:24:22;;;;;;;8.00;5.90;;;;;;;19.07;42.29;100244.19;107837;1250;97818;-63
2023/04/13 11:26:51;;;;;;;16.80;6.50;;;;;;;18.70;43.40;100246.50;107775;1250;97704;-64